Time;durP1;ratioP1;P1;durP2;ratioP2;P2;SDS_P1;SDS_P2;PMS_P1;PMS_P2;Temp;Humidity;BMP_temperature;BMP_pressure;BME280_temperature;BME280_humidity;BME280_pressure;Samples;Min_cycle;Max_cycle;Signal;HPM_P1;HPM_P2
2022/04/30 00:01:07;;;;;;;0.00;0.00;;;15.80;60.40;;;;;;4172830;28;20049;-68
2022/04/30 00:03:32;;;;;;;0.00;0.00;;;15.80;60.20;;;;;;4153001;28;20053;-68
2022/04/30 00:05:55;;;;;;;0.00;0.00;;;15.90;60.30;;;;;;4166929;28;20147;-67
2022/04/30 00:08:20;;;;;;;0.00;0.00;;;15.90;60.10;;;;;;4180329;28;20111;-71
2022/04/30 00:10:48;;;;;;;0.00;0.00;;;15.80;60.10;;;;;;4181213;28;20077;-70
2022/04/30 00:13:14;;;;;;;0.00;0.00;;;15.80;60.60;;;;;;4152736;28;20103;-70
2022/04/30 00:15:44;;;;;;;0.00;0.00;;;15.90;60.70;;;;;;4166728;28;20118;-72
2022/04/30 00:18:16;;;;;;;0.00;0.00;;;15.70;60.80;;;;;;4163645;28;20053;-69
2022/04/30 00:20:47;;;;;;;0.00;0.00;;;15.70;61.30;;;;;;4164483;28;20480;-71
2022/04/30 00:23:21;;;;;;;0.00;0.00;;;15.80;61.80;;;;;;4150487;28;20069;-67
2022/04/30 00:25:48;;;;;;;0.00;0.00;;;15.80;62.20;;;;;;4163973;28;20038;-69
2022/04/30 00:28:10;;;;;;;0.00;0.00;;;15.90;62.20;;;;;;4163457;28;20042;-69
2022/04/30 00:30:35;;;;;;;0.00;0.00;;;15.80;62.90;;;;;;4150590;28;20046;-68
2022/04/30 00:33:09;;;;;;;0.00;0.00;;;15.70;63.90;;;;;;4153695;28;20056;-68
2022/04/30 00:35:36;;;;;;;0.00;0.00;;;15.70;65.70;;;;;;4166777;28;20046;-68
2022/04/30 00:37:58;;;;;;;0.00;0.00;;;15.70;66.30;;;;;;4152995;28;20099;-71
2022/04/30 00:40:22;;;;;;;0.00;0.00;;;15.60;67.20;;;;;;4172875;28;20051;-69
2022/04/30 00:42:46;;;;;;;0.00;0.00;;;15.40;68.40;;;;;;4185799;28;20055;-68
2022/04/30 00:45:09;;;;;;;0.00;0.00;;;15.40;68.90;;;;;;4158499;28;20053;-70
2022/04/30 00:47:31;;;;;;;0.00;0.00;;;15.10;69.50;;;;;;4171648;28;20451;-68
2022/04/30 00:49:56;;;;;;;0.00;0.00;;;15.10;70.30;;;;;;4185998;28;20053;-70
2022/04/30 00:52:21;;;;;;;0.00;0.00;;;15.00;71.20;;;;;;4171678;28;20041;-70
2022/04/30 00:54:49;;;;;;;0.00;0.00;;;15.00;72.90;;;;;;4185552;28;20166;-68
2022/04/30 00:57:17;;;;;;;0.00;0.00;;;15.00;74.00;;;;;;4185712;28;20041;-69
2022/04/30 00:59:43;;;;;;;0.00;0.00;;;15.00;74.40;;;;;;4185324;28;20430;-67
2022/04/30 01:02:11;;;;;;;0.00;0.00;;;15.00;74.30;;;;;;4185901;28;20045;-70
2022/04/30 01:04:53;;;;;;;0.00;0.00;;;14.90;75.10;;;;;;4177662;28;20055;-68
2022/04/30 01:07:16;;;;;;;0.00;0.00;;;14.90;75.50;;;;;;4155059;28;20033;-71
2022/04/30 01:09:42;;;;;;;0.00;0.00;;;15.00;75.40;;;;;;4168874;28;20057;-70
2022/04/30 01:12:13;;;;;;;0.00;0.00;;;15.00;75.10;;;;;;4169109;28;20456;-70
2022/04/30 01:14:40;;;;;;;0.00;0.00;;;15.10;75.00;;;;;;4169110;28;20103;-69
2022/04/30 01:17:09;;;;;;;0.00;0.00;;;15.00;75.50;;;;;;4155538;28;20053;-68
2022/04/30 01:19:35;;;;;;;0.00;0.00;;;15.00;76.90;;;;;;4141276;28;20042;-68
2022/04/30 01:22:08;;;;;;;0.00;0.00;;;15.10;77.50;;;;;;4155219;28;20053;-69
2022/04/30 01:24:30;;;;;;;0.00;0.00;;;15.20;78.40;;;;;;4168824;28;20532;-70
2022/04/30 01:26:57;;;;;;;0.00;0.00;;;15.30;77.40;;;;;;4155206;28;20041;-72
2022/04/30 01:29:21;;;;;;;0.00;0.00;;;15.30;77.70;;;;;;4140769;28;20111;-74
2022/04/30 01:37:25;;;;;;;0.00;0.00;;;15.30;77.40;;;;;;4168308;28;19925;-68
2022/04/30 01:39:48;;;;;;;0.00;0.00;;;15.20;78.10;;;;;;4154863;28;20046;-70
2022/04/30 01:42:14;;;;;;;0.00;0.00;;;15.30;78.60;;;;;;4180788;28;20110;-70
2022/04/30 01:44:41;;;;;;;0.00;0.00;;;15.20;77.90;;;;;;4184707;28;20045;-69
2022/04/30 01:47:04;;;;;;;0.00;0.00;;;15.00;78.00;;;;;;4184741;28;20059;-69
2022/04/30 01:49:29;;;;;;;0.00;0.00;;;14.80;78.80;;;;;;4184271;28;20118;-70
2022/04/30 01:51:56;;;;;;;0.00;0.00;;;14.80;79.30;;;;;;4185131;28;20380;-69
2022/04/30 01:54:18;;;;;;;0.00;0.00;;;14.90;80.20;;;;;;4184768;28;20063;-70
2022/04/30 01:56:45;;;;;;;0.00;0.00;;;14.90;80.70;;;;;;4184804;28;20041;-69
2022/04/30 01:59:14;;;;;;;0.00;0.00;;;14.90;81.00;;;;;;4170437;28;20131;-71
2022/04/30 02:01:38;;;;;;;0.00;0.00;;;14.80;81.90;;;;;;4184317;28;20045;-72
2022/04/30 02:04:07;;;;;;;0.00;0.00;;;14.80;82.00;;;;;;4170687;28;20365;-69
2022/04/30 02:06:33;;;;;;;0.00;0.00;;;14.80;82.20;;;;;;4184655;28;20072;-68
2022/04/30 02:08:55;;;;;;;0.00;0.00;;;14.80;82.80;;;;;;4170500;28;20049;-69
2022/04/30 02:11:23;;;;;;;0.00;0.00;;;14.90;82.90;;;;;;4197981;28;20462;-68
2022/04/30 02:13:53;;;;;;;0.00;0.00;;;14.90;82.80;;;;;;4184680;28;20045;-70
2022/04/30 02:16:15;;;;;;;0.00;0.00;;;14.60;82.80;;;;;;4176058;28;20391;-70
2022/04/30 02:18:40;;;;;;;0.00;0.00;;;14.50;83.60;;;;;;4167657;28;20209;-71
2022/04/30 02:21:05;;;;;;;0.00;0.00;;;14.30;83.80;;;;;;4154573;28;20104;-73
2022/04/30 02:23:29;;;;;;;0.00;0.00;;;14.10;84.40;;;;;;4166938;28;20053;-68
2022/04/30 02:25:51;;;;;;;0.00;0.00;;;14.00;84.80;;;;;;4167900;28;20067;-70
2022/04/30 02:28:16;;;;;;;0.00;0.00;;;13.90;85.50;;;;;;4153947;28;20420;-72
2022/04/30 02:30:38;;;;;;;0.00;0.00;;;13.70;86.20;;;;;;4167536;28;20068;-69
2022/04/30 02:33:11;;;;;;;0.00;0.00;;;13.60;86.80;;;;;;4167708;28;20049;-70
2022/04/30 02:35:34;;;;;;;0.00;0.00;;;13.50;88.10;;;;;;4166916;28;20068;-71
2022/04/30 02:38:00;;;;;;;0.00;0.00;;;13.40;88.00;;;;;;4167547;28;20049;-69
2022/04/30 02:40:27;;;;;;;0.00;0.00;;;13.30;88.40;;;;;;4167466;28;20038;-68
2022/04/30 02:42:52;;;;;;;0.00;0.00;;;13.30;88.10;;;;;;4165111;28;20049;-69
2022/04/30 02:45:23;;;;;;;0.00;0.00;;;13.40;88.20;;;;;;4150543;28;20049;-70
2022/04/30 02:47:55;;;;;;;0.00;0.00;;;13.40;88.10;;;;;;4164943;28;20060;-69
2022/04/30 02:50:19;;;;;;;0.00;0.00;;;13.30;88.20;;;;;;4164815;28;20045;-71
2022/04/30 02:52:46;;;;;;;0.00;0.00;;;13.30;88.50;;;;;;4164639;28;20052;-70
2022/04/30 02:55:09;;;;;;;0.00;0.00;;;13.20;88.70;;;;;;4137451;28;20048;-70
2022/04/30 03:00:31;;;;;;;0.00;0.00;;;13.20;89.40;;;;;;4167005;28;20046;-74
2022/04/30 03:03:12;;;;;;;0.00;0.00;;;13.00;89.70;;;;;;4167612;28;20042;-69
2022/04/30 03:05:36;;;;;;;0.00;0.00;;;12.80;90.30;;;;;;4180816;28;20542;-68
2022/04/30 03:08:00;;;;;;;0.00;0.00;;;12.70;90.70;;;;;;4167529;28;20061;-73
2022/04/30 03:10:22;;;;;;;0.00;0.00;;;12.60;91.10;;;;;;4153563;28;20050;-72
2022/04/30 03:12:46;;;;;;;0.00;0.00;;;12.60;91.40;;;;;;4153686;28;20049;-70
2022/04/30 03:15:11;;;;;;;0.00;0.00;;;12.40;91.80;;;;;;4167267;28;20502;-69
2022/04/30 03:22:57;;;;;;;0.00;0.00;;;12.30;92.50;;;;;;4150638;28;20046;-69
2022/04/30 03:25:19;;;;;;;0.00;0.00;;;12.10;93.00;;;;;;4163827;28;20056;-71
2022/04/30 03:27:43;;;;;;;0.00;0.00;;;12.00;93.30;;;;;;4151203;28;20045;-70
2022/04/30 03:30:05;;;;;;;0.00;0.00;;;12.00;93.30;;;;;;4150500;28;20045;-68
2022/04/30 03:32:28;;;;;;;0.00;0.00;;;12.00;93.20;;;;;;4144323;28;20050;-70
2022/04/30 03:34:52;;;;;;;0.00;0.00;;;12.10;93.20;;;;;;4150379;28;20046;-68
2022/04/30 03:37:17;;;;;;;0.00;0.00;;;12.10;93.20;;;;;;4150064;28;20099;-70
2022/04/30 03:39:39;;;;;;;0.00;0.00;;;12.10;93.20;;;;;;4150673;28;20102;-68
2022/04/30 03:42:07;;;;;;;0.00;0.00;;;12.10;93.10;;;;;;4158810;28;20037;-71
2022/04/30 03:44:32;;;;;;;0.00;0.00;;;12.10;93.20;;;;;;4169426;28;20049;-67
2022/04/30 03:46:59;;;;;;;0.00;0.00;;;11.90;93.30;;;;;;4169737;28;20040;-70
2022/04/30 03:49:21;;;;;;;0.00;0.00;;;11.90;93.30;;;;;;4169078;28;20107;-67
2022/04/30 03:51:43;;;;;;;0.00;0.00;;;11.90;93.30;;;;;;4183139;28;20045;-66
2022/04/30 03:54:07;;;;;;;0.00;0.00;;;11.90;93.30;;;;;;4169600;28;20079;-67
2022/04/30 03:56:31;;;;;;;0.00;0.00;;;11.90;93.30;;;;;;4161812;28;20033;-69
2022/04/30 03:58:56;;;;;;;0.00;0.00;;;11.90;93.30;;;;;;4155440;28;20050;-70
2022/04/30 04:01:18;;;;;;;0.00;0.00;;;11.90;93.20;;;;;;4165900;28;20046;-69
2022/04/30 04:03:45;;;;;;;0.00;0.00;;;11.90;93.20;;;;;;4166731;28;20057;-66
2022/04/30 04:06:10;;;;;;;0.00;0.00;;;12.00;93.10;;;;;;4171716;28;20126;-69
2022/04/30 04:08:34;;;;;;;0.00;0.00;;;12.00;92.90;;;;;;4158379;28;20050;-70
2022/04/30 04:10:56;;;;;;;0.00;0.00;;;12.10;93.00;;;;;;4171985;28;20075;-70
2022/04/30 04:18:43;;;;;;;0.00;0.00;;;12.30;92.70;;;;;;4152819;28;20056;-70
2022/04/30 04:21:05;;;;;;;0.00;0.00;;;12.40;92.60;;;;;;4155312;28;20049;-71
2022/04/30 04:23:27;;;;;;;0.00;0.00;;;12.40;92.50;;;;;;4155132;28;20054;-70
2022/04/30 04:25:59;;;;;;;0.00;0.00;;;12.50;92.40;;;;;;4155710;28;20034;-71
2022/04/30 04:28:21;;;;;;;0.00;0.00;;;12.60;92.20;;;;;;4169212;28;20649;-70
2022/04/30 04:30:45;;;;;;;0.00;0.00;;;12.60;92.20;;;;;;4155449;28;20049;-70
2022/04/30 04:33:10;;;;;;;0.00;0.00;;;12.50;92.40;;;;;;4155495;28;20049;-69
2022/04/30 04:35:32;;;;;;;0.00;0.00;;;12.50;92.40;;;;;;4154903;28;20080;-70
2022/04/30 04:37:54;;;;;;;0.00;0.00;;;12.50;92.40;;;;;;4155397;28;20127;-73
2022/04/30 04:40:20;;;;;;;0.00;0.00;;;12.60;92.40;;;;;;4141839;28;20054;-72
2022/04/30 04:42:46;;;;;;;0.00;0.00;;;12.70;92.30;;;;;;4155422;28;20053;-70
2022/04/30 04:45:09;;;;;;;0.00;0.00;;;12.80;92.10;;;;;;4156026;28;20092;-70
2022/04/30 04:47:34;;;;;;;0.00;0.00;;;12.90;91.80;;;;;;4155238;28;20037;-72
2022/04/30 04:49:56;;;;;;;0.00;0.00;;;12.90;91.70;;;;;;4169050;28;20372;-68
2022/04/30 04:52:22;;;;;;;0.00;0.00;;;12.80;91.70;;;;;;4169073;28;20464;-68
2022/04/30 04:54:44;;;;;;;0.00;0.00;;;12.80;91.80;;;;;;4155626;28;20045;-68
2022/04/30 04:57:13;;;;;;;0.00;0.00;;;12.70;91.90;;;;;;4142122;28;20114;-69
2022/04/30 04:59:35;;;;;;;0.00;0.00;;;12.70;91.90;;;;;;4166092;28;20055;-71
2022/04/30 05:02:03;;;;;;;0.00;0.00;;;12.80;91.90;;;;;;4172233;28;20045;-70
2022/04/30 05:04:28;;;;;;;0.00;0.00;;;12.80;91.80;;;;;;4171901;28;20042;-69
2022/04/30 05:06:51;;;;;;;0.00;0.00;;;12.90;91.90;;;;;;4158192;28;20045;-70
2022/04/30 05:09:16;;;;;;;0.00;0.00;;;12.90;92.00;;;;;;4171692;28;20045;-70
2022/04/30 05:11:41;;;;;;;0.00;0.00;;;12.90;92.00;;;;;;4172221;28;20060;-72
2022/04/30 05:14:04;;;;;;;0.00;0.00;;;13.00;91.90;;;;;;4172232;28;20507;-74
2022/04/30 05:16:29;;;;;;;0.00;0.00;;;13.10;91.70;;;;;;4169766;28;20052;-72
2022/04/30 05:18:53;;;;;;;0.00;0.00;;;13.10;91.50;;;;;;4159741;28;20042;-72
2022/04/30 05:21:15;;;;;;;0.00;0.00;;;13.20;91.40;;;;;;4152635;28;20396;-70
2022/04/30 05:23:37;;;;;;;0.00;0.00;;;13.30;91.20;;;;;;4152622;28;20088;-68
2022/04/30 05:26:00;;;;;;;0.00;0.00;;;13.30;91.10;;;;;;4152919;28;20049;-70
2022/04/30 05:28:24;;;;;;;0.00;0.00;;;13.20;91.20;;;;;;4139112;28;20052;-69
2022/04/30 05:30:46;;;;;;;0.00;0.00;;;13.20;91.40;;;;;;4152735;28;20042;-69
2022/04/30 05:33:13;;;;;;;0.00;0.00;;;13.10;91.10;;;;;;4139170;28;20056;-72
2022/04/30 05:35:40;;;;;;;0.00;0.00;;;13.00;91.10;;;;;;4152090;28;20604;-69
2022/04/30 05:38:02;;;;;;;0.00;0.00;;;12.90;91.40;;;;;;4138935;28;20050;-71
2022/04/30 05:40:26;;;;;;;0.00;0.00;;;12.80;91.60;;;;;;4152807;28;20495;-72
2022/04/30 05:42:52;;;;;;;0.00;0.00;;;12.80;91.70;;;;;;4149282;28;20049;-72
2022/04/30 05:45:16;;;;;;;0.00;0.00;;;12.60;91.80;;;;;;4168014;28;20064;-75
2022/04/30 05:47:38;;;;;;;0.00;0.00;;;12.50;92.20;;;;;;4182687;28;20100;-73
2022/04/30 05:50:09;;;;;;;0.00;0.00;;;12.60;92.40;;;;;;4155597;28;20049;-69
2022/04/30 05:52:33;;;;;;;0.00;0.00;;;12.70;92.30;;;;;;4155174;28;20041;-71
2022/04/30 05:54:56;;;;;;;0.00;0.00;;;12.70;92.30;;;;;;4182596;28;20122;-69
2022/04/30 05:57:20;;;;;;;0.00;0.00;;;12.60;92.70;;;;;;4168030;28;20228;-69
2022/04/30 05:59:44;;;;;;;0.00;0.00;;;12.60;92.40;;;;;;4155395;28;20473;-72
2022/04/30 06:02:09;;;;;;;0.00;0.00;;;12.60;92.40;;;;;;4168429;28;20053;-70
2022/04/30 06:04:31;;;;;;;0.00;0.00;;;12.50;92.60;;;;;;4168749;28;20100;-70
2022/04/30 06:06:54;;;;;;;0.00;0.00;;;12.50;92.60;;;;;;4168463;28;20037;-71
2022/04/30 06:09:16;;;;;;;0.00;0.00;;;12.50;92.80;;;;;;4159931;28;20049;-71
2022/04/30 06:11:41;;;;;;;0.00;0.00;;;12.50;92.80;;;;;;4168218;28;20419;-72
2022/04/30 06:14:05;;;;;;;0.00;0.00;;;12.50;92.80;;;;;;4168381;28;20123;-71
2022/04/30 06:16:27;;;;;;;0.00;0.00;;;12.50;93.00;;;;;;4168997;28;20063;-69
2022/04/30 06:18:52;;;;;;;0.00;0.00;;;12.60;93.10;;;;;;4158805;28;20116;-69
2022/04/30 06:21:32;;;;;;;0.00;0.00;;;12.50;93.00;;;;;;4151370;28;20049;-69
2022/04/30 06:23:57;;;;;;;0.00;0.00;;;12.50;92.90;;;;;;4151610;28;20281;-71
2022/04/30 06:26:23;;;;;;;0.00;0.00;;;12.50;92.90;;;;;;4151833;28;20108;-69
2022/04/30 06:28:46;;;;;;;0.00;0.00;;;12.50;93.00;;;;;;4150555;28;20050;-68
2022/04/30 06:31:08;;;;;;;0.00;0.00;;;12.40;93.10;;;;;;4137887;28;20130;-69
2022/04/30 06:33:30;;;;;;;0.00;0.00;;;12.40;93.20;;;;;;4151003;28;20042;-69
2022/04/30 06:35:55;;;;;;;0.00;0.00;;;12.50;93.10;;;;;;4151640;28;20042;-73
2022/04/30 06:38:19;;;;;;;0.00;0.00;;;12.50;93.00;;;;;;4138119;28;20069;-68
2022/04/30 06:40:41;;;;;;;0.00;0.00;;;12.50;93.00;;;;;;4151943;28;20452;-67
2022/04/30 06:43:03;;;;;;;0.00;0.00;;;12.50;93.10;;;;;;4164004;28;20172;-69
2022/04/30 06:45:26;;;;;;;0.00;0.00;;;12.40;93.10;;;;;;4167568;28;20524;-74
2022/04/30 06:47:50;;;;;;;0.00;0.00;;;12.50;93.20;;;;;;4153810;28;20046;-69
2022/04/30 06:50:15;;;;;;;0.00;0.00;;;12.60;93.00;;;;;;4168120;28;20041;-68
2022/04/30 06:57:07;;;;;;;0.00;0.00;;;12.50;93.10;;;;;;4153744;28;20038;-71
2022/04/30 06:58:08;;;;;;;0.00;0.00;;;12.60;93.00;;;;;;4160123;28;20065;-71
2022/04/30 07:03:19;;;;;;;0.00;0.00;;;12.40;93.30;;;;;;4183548;28;20048;-70
2022/04/30 07:05:41;;;;;;;0.00;0.00;;;12.50;93.30;;;;;;4137869;28;20064;-70
2022/04/30 07:08:06;;;;;;;0.00;0.00;;;12.40;93.20;;;;;;4151062;28;20463;-70
2022/04/30 07:10:31;;;;;;;0.00;0.00;;;12.30;93.50;;;;;;4164814;28;20091;-72
2022/04/30 07:12:55;;;;;;;0.00;0.00;;;12.20;93.70;;;;;;4151351;28;20046;-71
2022/04/30 07:15:19;;;;;;;0.00;0.00;;;12.10;93.90;;;;;;4150970;28;20574;-69
2022/04/30 07:17:42;;;;;;;0.00;0.00;;;12.20;94.10;;;;;;4151066;28;20042;-74
2022/04/30 07:20:06;;;;;;;0.00;0.00;;;12.20;94.20;;;;;;4166925;28;20483;-70
2022/04/30 07:22:31;;;;;;;0.00;0.00;;;12.20;94.20;;;;;;4167382;28;20045;-73
2022/04/30 07:24:55;;;;;;;0.00;0.00;;;12.30;94.10;;;;;;4153362;28;20046;-69
2022/04/30 07:27:21;;;;;;;0.00;0.00;;;12.20;94.10;;;;;;4161153;28;20058;-70
2022/04/30 07:29:43;;;;;;;0.00;0.00;;;12.10;94.20;;;;;;4177240;28;20047;-71
2022/04/30 07:32:15;;;;;;;0.00;0.00;;;12.20;94.40;;;;;;4181092;28;20079;-74
2022/04/30 07:35:08;;;;;;;0.00;0.00;;;12.30;94.50;;;;;;4170482;28;20095;-71
2022/04/30 07:38:11;;;;;;;0.00;0.00;;;12.40;94.40;;;;;;4184752;28;20510;-71
2022/04/30 07:41:13;;;;;;;0.00;0.00;;;12.50;94.20;;;;;;4153262;28;20045;-69
2022/04/30 07:44:16;;;;;;;0.00;0.00;;;12.60;94.20;;;;;;4164614;28;20430;-70
2022/04/30 07:47:11;;;;;;;0.00;0.00;;;12.60;94.20;;;;;;4152718;28;20055;-73
2022/04/30 07:50:17;;;;;;;0.00;0.00;;;12.50;94.40;;;;;;4165718;28;20045;-74
2022/04/30 07:53:21;;;;;;;0.00;0.00;;;12.40;94.30;;;;;;4181690;28;20179;-71
2022/04/30 07:56:24;;;;;;;0.00;0.00;;;12.40;94.70;;;;;;4181254;28;20044;-73
2022/04/30 07:59:36;;;;;;;0.00;0.00;;;12.40;94.80;;;;;;4170772;28;20067;-70
2022/04/30 08:02:39;;;;;;;;;;;12.60;94.90;;;;;;4164086;28;20045;-71
2022/04/30 08:05:35;;;;;;;0.00;0.00;;;12.50;94.60;;;;;;4164605;28;20078;-72
2022/04/30 08:08:40;;;;;;;0.00;0.00;;;12.40;95.00;;;;;;4163519;28;20464;-75
2022/04/30 08:11:36;;;;;;;0.00;0.00;;;12.40;95.00;;;;;;4168422;28;20049;-71
2022/04/30 08:14:39;;;;;;;0.00;0.00;;;12.60;95.00;;;;;;4179692;28;20052;-73
2022/04/30 08:17:35;;;;;;;0.00;0.00;;;12.70;94.70;;;;;;4180352;28;20367;-73
2022/04/30 08:20:38;;;;;;;0.00;0.00;;;12.70;94.70;;;;;;4164204;28;20038;-75
2022/04/30 08:23:38;;;;;;;0.00;0.00;;;12.90;94.60;;;;;;4160314;28;20467;-71
2022/04/30 08:26:41;;;;;;;0.00;0.00;;;12.90;94.20;;;;;;4164732;28;20052;-74
2022/04/30 08:29:38;;;;;;;0.00;0.00;;;12.90;94.20;;;;;;4163286;28;20056;-73
2022/04/30 08:32:43;;;;;;;0.00;0.00;;;12.80;94.60;;;;;;4163387;28;20056;-71
2022/04/30 08:35:39;;;;;;;0.00;0.00;;;12.90;94.40;;;;;;4164701;28;20470;-73
2022/04/30 08:38:44;;;;;;;0.00;0.00;;;12.90;94.50;;;;;;4164128;28;20060;-71
2022/04/30 08:41:42;;;;;;;0.00;0.00;;;13.10;94.30;;;;;;4165566;28;20038;-73
2022/04/30 08:44:46;;;;;;;0.00;0.00;;;13.30;93.80;;;;;;4195511;28;20543;-73
2022/04/30 08:47:22;;;;;;;0.00;0.00;;;13.40;93.40;;;;;;4155809;28;20095;-75
2022/04/30 08:49:44;;;;;;;0.00;0.00;;;13.60;93.30;;;;;;4135984;28;20440;-75
2022/04/30 08:52:11;;;;;;;0.00;0.00;;;13.70;93.10;;;;;;4151576;28;20073;-77
2022/04/30 08:54:36;;;;;;;0.00;0.00;;;13.70;92.40;;;;;;4153451;28;20472;-75
2022/04/30 08:56:58;;;;;;;0.00;0.00;;;13.70;92.40;;;;;;4152820;28;20457;-74
2022/04/30 08:59:23;;;;;;;0.00;0.00;;;14.00;92.50;;;;;;4154950;28;20504;-74
2022/04/30 09:01:37;;;;;;;0.00;0.00;;;14.00;92.10;;;;;;4177531;28;20123;-75
2022/04/30 09:04:51;;;;;;;0.00;0.00;;;14.10;91.90;;;;;;4201690;28;20198;-75
2022/04/30 09:08:04;;;;;;;0.00;0.00;;;13.90;91.50;;;;;;4201262;28;20046;-73
2022/04/30 09:11:07;;;;;;;0.00;0.00;;;13.90;91.60;;;;;;4187891;28;20135;-72
2022/04/30 09:14:03;;;;;;;0.00;0.00;;;14.10;91.10;;;;;;4196262;28;20059;-74
2022/04/30 09:16:32;;;;;;;0.00;0.00;;;14.20;91.10;;;;;;4164462;28;20053;-74
2022/04/30 09:19:35;;;;;;;0.00;0.00;;;14.20;90.40;;;;;;4178861;28;20040;-75
2022/04/30 09:22:38;;;;;;;0.00;0.00;;;14.10;90.20;;;;;;4155690;28;20045;-73
2022/04/30 09:25:41;;;;;;;0.00;0.00;;;14.30;89.40;;;;;;4167628;28;20384;-73
2022/04/30 09:28:38;;;;;;;0.00;0.00;;;14.30;88.80;;;;;;4153251;28;20192;-74
2022/04/30 09:31:46;;;;;;;0.00;0.00;;;14.50;89.40;;;;;;4167259;28;20053;-72
2022/04/30 09:37:41;;;;;;;0.00;0.00;;;14.70;88.50;;;;;;4166678;28;20518;-73
2022/04/30 09:40:04;;;;;;;0.00;0.00;;;14.60;88.40;;;;;;4166145;28;20423;-74
2022/04/30 09:43:05;;;;;;;0.00;0.00;;;14.70;87.90;;;;;;4186495;28;20174;-75
2022/04/30 09:46:08;;;;;;;0.00;0.00;;;14.70;86.70;;;;;;4190615;28;20083;-75
2022/04/30 09:53:56;;;;;;;0.00;0.00;;;15.00;86.00;;;;;;4173830;28;20045;-70
2022/04/30 09:56:23;;;;;;;0.00;0.00;;;15.20;86.00;;;;;;4183310;28;20059;-72
2022/04/30 09:58:45;;;;;;;0.00;0.00;;;15.50;84.90;;;;;;4174007;28;20072;-72
2022/04/30 10:01:13;;;;;;;0.00;0.00;;;15.60;84.70;;;;;;4165795;28;20052;-73
2022/04/30 10:03:35;;;;;;;0.00;0.00;;;15.80;83.60;;;;;;4166020;28;20049;-71
2022/04/30 10:06:00;;;;;;;0.00;0.00;;;15.90;83.00;;;;;;4165499;28;20057;-72
2022/04/30 10:08:24;;;;;;;0.00;0.00;;;16.00;82.40;;;;;;4181456;28;20095;-70
2022/04/30 10:10:53;;;;;;;0.00;0.00;;;16.00;82.10;;;;;;4181112;28;20056;-71
2022/04/30 10:13:37;;;;;;;0.00;0.00;;;16.10;81.50;;;;;;4165506;28;20054;-70
2022/04/30 10:16:24;;;;;;;0.00;0.00;;;16.10;81.20;;;;;;4180933;28;20060;-72
2022/04/30 10:18:53;;;;;;;0.00;0.00;;;16.20;81.60;;;;;;4198179;28;20048;-70
2022/04/30 10:21:18;;;;;;;0.00;0.00;;;16.00;80.80;;;;;;4181557;28;20047;-70
2022/04/30 10:23:40;;;;;;;0.00;0.00;;;15.70;82.70;;;;;;4181566;28;20100;-71
2022/04/30 10:26:07;;;;;;;0.00;0.00;;;15.70;82.00;;;;;;4167054;28;20461;-69
2022/04/30 10:28:30;;;;;;;0.00;0.00;;;15.70;82.20;;;;;;4165329;28;20437;-68
2022/04/30 10:31:04;;;;;;;0.00;0.00;;;15.90;81.20;;;;;;4164622;28;20045;-70
2022/04/30 10:33:29;;;;;;;0.00;0.00;;;16.30;78.10;;;;;;4164930;28;20407;-69
2022/04/30 10:35:43;;;;;;;0.00;0.00;;;16.40;77.80;;;;;;4165833;28;20093;-70
2022/04/30 10:38:29;;;;;;;0.00;0.00;;;16.60;77.40;;;;;;4155145;28;20060;-73
2022/04/30 10:41:22;;;;;;;0.00;0.00;;;16.60;75.30;;;;;;4181885;28;20131;-68
2022/04/30 10:43:51;;;;;;;0.00;0.00;;;16.40;74.60;;;;;;4181237;28;20049;-70
2022/04/30 10:46:52;;;;;;;0.00;0.00;;;16.40;74.00;;;;;;4167760;28;20135;-70
2022/04/30 10:49:15;;;;;;;0.00;0.00;;;16.40;73.70;;;;;;4164533;28;20124;-73
2022/04/30 10:51:39;;;;;;;0.00;0.00;;;16.20;73.20;;;;;;4165985;28;20057;-71
2022/04/30 10:54:11;;;;;;;0.00;0.00;;;16.00;74.30;;;;;;4165762;28;20325;-72
2022/04/30 10:56:29;;;;;;;0.00;0.00;;;16.00;73.90;;;;;;4176584;28;20052;-70
2022/04/30 10:58:48;;;;;;;0.00;0.00;;;16.10;75.10;;;;;;4155609;28;20061;-71
2022/04/30 11:01:15;;;;;;;0.00;0.00;;;16.20;73.40;;;;;;4155709;28;20511;-73
2022/04/30 11:03:34;;;;;;;0.00;0.00;;;16.10;72.80;;;;;;4165811;28;20088;-70
2022/04/30 11:05:49;;;;;;;0.00;0.00;;;16.10;72.10;;;;;;4148634;28;20045;-69
2022/04/30 11:08:10;;;;;;;0.00;0.00;;;16.20;72.20;;;;;;4142050;28;20085;-72
2022/04/30 11:10:34;;;;;;;0.00;0.00;;;16.10;72.30;;;;;;4143982;28;20045;-71
2022/04/30 11:12:49;;;;;;;0.00;0.00;;;16.30;72.70;;;;;;4137964;28;20124;-70
2022/04/30 11:15:44;;;;;;;0.00;0.00;;;16.60;71.80;;;;;;4150305;28;20112;-70
2022/04/30 11:18:36;;;;;;;0.00;0.00;;;16.90;70.20;;;;;;4164587;28;20045;-69
2022/04/30 11:21:07;;;;;;;0.00;0.00;;;16.80;70.50;;;;;;4147944;28;20034;-72
2022/04/30 11:23:30;;;;;;;0.00;0.00;;;16.90;70.80;;;;;;4141361;28;20046;-70
2022/04/30 11:25:58;;;;;;;0.00;0.00;;;17.00;70.20;;;;;;4148002;28;20114;-70
2022/04/30 11:28:48;;;;;;;0.00;0.00;;;16.90;69.20;;;;;;4147364;28;20064;-71
2022/04/30 11:31:12;;;;;;;0.00;0.00;;;16.70;69.60;;;;;;4165322;28;20072;-71
2022/04/30 11:33:36;;;;;;;0.00;0.00;;;16.70;70.10;;;;;;4165435;28;20105;-71
2022/04/30 11:36:03;;;;;;;0.00;0.00;;;16.80;71.20;;;;;;4166505;28;20045;-70
2022/04/30 11:38:11;;;;;;;0.00;0.00;;;16.80;70.00;;;;;;4148495;28;20481;-69
2022/04/30 11:40:38;;;;;;;0.00;0.00;;;16.80;70.50;;;;;;4148910;28;20050;-71
2022/04/30 11:42:56;;;;;;;0.00;0.00;;;16.80;70.50;;;;;;4164292;28;20140;-69
2022/04/30 11:45:05;;;;;;;0.00;0.00;;;16.90;71.40;;;;;;4148231;28;20048;-72
2022/04/30 11:47:26;;;;;;;0.00;0.00;;;17.00;71.80;;;;;;4147743;28;20358;-76
2022/04/30 11:49:41;;;;;;;0.00;0.00;;;17.00;70.40;;;;;;4158642;28;20060;-73
2022/04/30 11:52:04;;;;;;;0.00;0.00;;;16.90;70.10;;;;;;4149836;28;20050;-71
2022/04/30 11:54:27;;;;;;;0.00;0.00;;;17.00;70.90;;;;;;4149267;28;20045;-74
2022/04/30 11:56:47;;;;;;;0.00;0.00;;;17.20;68.80;;;;;;4164465;28;20046;-71
2022/04/30 11:59:17;;;;;;;0.00;0.00;;;17.10;67.90;;;;;;4160789;28;20061;-71
2022/04/30 12:02:11;;;;;;;0.00;0.00;;;17.20;66.80;;;;;;4182128;28;20057;-72
2022/04/30 12:04:41;;;;;;;0.00;0.00;;;17.20;66.00;;;;;;4180567;28;20471;-73
2022/04/30 12:07:03;;;;;;;0.00;0.00;;;17.10;66.50;;;;;;4181699;28;20135;-72
2022/04/30 12:09:27;;;;;;;0.00;0.00;;;17.20;65.30;;;;;;4180914;28;20041;-72
2022/04/30 12:11:50;;;;;;;0.00;0.00;;;17.30;66.10;;;;;;4165393;28;20084;-76
2022/04/30 12:14:12;;;;;;;0.00;0.00;;;17.30;65.50;;;;;;4181717;28;20490;-71
2022/04/30 12:16:36;;;;;;;0.00;0.00;;;17.40;65.60;;;;;;4180994;28;20045;-71
2022/04/30 12:24:45;;;;;;;0.00;0.00;;;17.90;66.50;;;;;;4174822;28;20041;-73
2022/04/30 12:27:12;;;;;;;0.00;0.00;;;18.00;64.70;;;;;;4167039;28;20060;-73
2022/04/30 12:29:38;;;;;;;0.00;0.00;;;18.20;65.60;;;;;;4167583;28;20053;-71
2022/04/30 12:31:47;;;;;;;0.00;0.00;;;18.40;64.00;;;;;;4185425;28;20053;-74
2022/04/30 12:33:57;;;;;;;0.00;0.00;;;18.50;62.90;;;;;;4168358;28;20147;-72
2022/04/30 12:36:23;;;;;;;0.00;0.00;;;18.60;62.50;;;;;;4184790;28;20079;-73
2022/04/30 12:38:38;;;;;;;0.00;0.00;;;18.80;61.70;;;;;;4183749;28;20049;-72
2022/04/30 12:40:50;;;;;;;0.00;0.00;;;18.90;61.30;;;;;;4166896;28;20050;-72
2022/04/30 12:43:16;;;;;;;0.00;0.00;;;18.90;59.70;;;;;;4184536;28;20083;-73
2022/04/30 12:45:27;;;;;;;0.00;0.00;;;18.60;61.50;;;;;;4183629;28;20056;-70
2022/04/30 12:47:49;;;;;;;0.00;0.00;;;18.30;64.90;;;;;;4167012;28;20042;-70
2022/04/30 12:50:05;;;;;;;0.00;0.00;;;18.00;67.70;;;;;;4184627;28;20045;-71
2022/04/30 12:52:27;;;;;;;0.00;0.00;;;17.40;69.70;;;;;;4184808;28;20395;-76
2022/04/30 12:54:59;;;;;;;0.00;0.00;;;17.40;69.30;;;;;;4183704;28;20114;-71
2022/04/30 12:57:24;;;;;;;0.00;0.00;;;17.60;69.30;;;;;;4168785;28;20069;-75
2022/04/30 12:59:38;;;;;;;0.00;0.00;;;17.20;69.00;;;;;;4183658;28;20068;-72
2022/04/30 13:02:01;;;;;;;0.00;0.00;;;17.10;68.50;;;;;;4198279;28;20078;-73
2022/04/30 13:04:17;;;;;;;0.00;0.00;;;16.90;68.60;;;;;;4200790;28;20045;-73
2022/04/30 13:06:34;;;;;;;0.00;0.00;;;16.80;69.00;;;;;;4183117;28;20055;-71
2022/04/30 13:14:24;;;;;;;0.00;0.00;;;16.60;69.10;;;;;;4200991;28;20630;-71
2022/04/30 13:16:40;;;;;;;0.00;0.00;;;16.40;69.40;;;;;;4184409;28;20107;-72
2022/04/30 13:19:10;;;;;;;0.00;0.00;;;16.30;69.70;;;;;;4167732;28;20041;-74
2022/04/30 13:21:33;;;;;;;0.00;0.00;;;16.20;70.10;;;;;;4167523;28;20046;-72
2022/04/30 13:23:48;;;;;;;0.00;0.00;;;16.00;70.20;;;;;;4167822;28;20095;-69
2022/04/30 13:26:08;;;;;;;0.00;0.00;;;15.90;70.60;;;;;;4166768;28;20080;-71
2022/04/30 13:28:26;;;;;;;0.00;0.00;;;15.90;70.90;;;;;;4168288;28;20092;-72
2022/04/30 13:30:48;;;;;;;0.00;0.00;;;15.70;71.40;;;;;;4168650;28;20050;-72
2022/04/30 13:33:06;;;;;;;0.00;0.00;;;15.40;73.20;;;;;;4167693;28;20531;-71
2022/04/30 13:35:33;;;;;;;0.00;0.00;;;15.50;73.80;;;;;;4167081;28;20072;-73
2022/04/30 13:37:51;;;;;;;0.00;0.00;;;15.40;76.10;;;;;;4167366;28;20148;-73
2022/04/30 13:40:15;;;;;;;0.00;0.00;;;15.30;78.40;;;;;;4152234;28;20042;-72
2022/04/30 13:43:08;;;;;;;0.00;0.00;;;15.20;79.30;;;;;;4166113;28;20109;-73